Amundsen, Ontario

3:50 PM EDT on April 26, 2017 (GMT -0400)
Kapuskasing | | Change Station
Active Advisory: Special Weather Statement

Elev 745 ft 49.42 °N, 82.47 °W | Updated 9 minutes ago

Ice Pellets
Ice Pellets
27 °F
Feels Like 16 °F
N
13
Wind Variable Wind from ENE

Today
High -- | Low -- °F
--% Chance of Precip.
Yesterday
High -- | Low -- °F
Precip. -- in
Pressure 29.93 in
Visibility 2.5 miles
Clouds Overcast 1300 ft
Windchill 16 °F
Dew Point 23 °F
Humidity 86%
Rainfall 0.00 in
Snow Depth Not available.
6:19 AM 8:39 PM
New Moon, 0% visible
SPECI CYYU 261941Z 07011KT 040V100 2 1/2SM -PL OVC013 M03/M05 A2988 RMK PL2NS6 PRESRR SLP135
Pressure 29.93 in
Visibility 2.5 miles
Clouds Overcast 1300 ft
Windchill 16 °F
Dew Point 23 °F
Humidity 86%
Rainfall 0.00 in
Snow Depth Not available.
6:19 AM 8:39 PM
New Moon, 0% visible
SPECI CYYU 261941Z 07011KT 040V100 2 1/2SM -PL OVC013 M03/M05 A2988 RMK PL2NS6 PRESRR SLP135

Get Severe Weather Alerts

Thanks for signing up!

Be on the lookout for a verification email in your inbox.

You'll start receiving the daily forecast at 8 AM.

×

10-Day Weather Forecast

Almanac

Astronomy

Apr. 26, 2017 Rise Set
Actual Time
Civil Twilight
Nautical Twilight
Astronomical Twilight
Moon
Length of Visible Light
Length of Day
Tomorrow will be .
, % of the Moon is Illuminated

Today's Extremes

Country Highs Country Lows

Community

WunderPhotos

WunderBlog® & News

Nearby

Air Quality

  Air Quality AQ Index Pollutant
Not available.

Snow Depth

Station Depth Elevation

Earthquake Activity

City Distance Mag. Time & Date
Minimum magnitude displayed is 2.5.

Coastal Water Temperatures

Place Temperature

Stations

Nearby Weather Stations

Station Location Temp. Windchill Dew Point Humidity Wind Precip. Elev Updated Type
                   

Watches & Warnings

Special Weather Statement
Issued: Environment Canada
Special Weather Statement issued by Environment.  08:45 AM EDT Wednesday 26 April 2017.
Ice build-up due to freezing rain is expected or occurring.

Freezing rain today.  

Periods of freezing rain will continue into the afternoon as a spring storm approaches the region. The freezing rain will change to occasional rain by early this evening as temperatures rise above the zero degree mark.

###

Surfaces such as highways, roads, walkways and parking lots will become icy, slippery and hazardous. Ice build-up may cause tree branches to break. Utility outages may occur.

Freezing rain warnings are issued when rain falling in sub-zero temperatures creates ice build-up and icy surfaces.

Please continue to monitor alerts and forecasts issued by Environment Canada. To report severe weather, send an email to ec.cpio-tempetes-ospc-storms.ec@canada.ca or tweet reports using #ONStorm.
expires_epoch:1493256528